createdAt,value
2018-09-14T00:00:04.681Z,100.00
2018-09-14T00:01:10.993Z,100.00
2018-09-14T00:02:17.250Z,100.00
2018-09-14T00:03:23.274Z,100.00
2018-09-14T00:04:29.588Z,100.00
2018-09-14T00:05:35.847Z,100.00
2018-09-14T00:06:42.105Z,100.00
2018-09-14T00:07:48.390Z,100.00
2018-09-14T00:08:54.714Z,100.00
2018-09-14T00:10:00.930Z,100.00
2018-09-14T00:11:07.176Z,100.00
2018-09-14T00:12:13.423Z,100.00
2018-09-14T00:13:19.390Z,100.00
2018-09-14T00:14:25.709Z,100.00
2018-09-14T00:15:31.965Z,100.00
2018-09-14T00:16:38.204Z,100.00
2018-09-14T00:17:44.450Z,100.00
2018-09-14T00:18:50.725Z,100.00
2018-09-14T00:19:57.039Z,100.00
2018-09-14T00:21:03.024Z,100.00
2018-09-14T00:22:09.283Z,100.00
2018-09-14T00:23:15.522Z,100.00
2018-09-14T00:24:21.776Z,100.00
2018-09-14T00:25:28.004Z,100.00
2018-09-14T00:26:34.252Z,100.00
2018-09-14T00:27:40.488Z,100.00
2018-09-14T00:28:46.741Z,100.00
2018-09-14T00:29:52.994Z,100.00
2018-09-14T00:30:58.937Z,100.00
2018-09-14T00:32:04.914Z,100.00
2018-09-14T00:33:10.892Z,100.00
2018-09-14T00:34:17.158Z,100.00
2018-09-14T00:35:23.160Z,100.00
2018-09-14T00:36:29.383Z,100.00
2018-09-14T00:37:35.415Z,100.00
2018-09-14T00:38:41.699Z,100.00
2018-09-14T00:39:47.980Z,100.00
2018-09-14T00:40:54.215Z,100.00
2018-09-14T00:42:00.171Z,100.00
2018-09-14T00:43:06.430Z,100.00
2018-09-14T00:44:12.692Z,100.00
2018-09-14T00:45:18.964Z,100.00
2018-09-14T00:46:25.194Z,100.00
2018-09-14T00:47:31.451Z,100.00
2018-09-14T00:48:37.762Z,100.00
2018-09-14T00:49:44.028Z,100.00
2018-09-14T00:50:50.269Z,100.00
2018-09-14T00:51:56.531Z,100.00
2018-09-14T00:53:02.743Z,99.92
2018-09-14T00:54:09.024Z,100.00
2018-09-14T00:55:15.304Z,100.00
2018-09-14T00:56:21.536Z,100.00
2018-09-14T00:57:27.751Z,100.00
2018-09-14T00:58:33.972Z,100.00
2018-09-14T00:59:40.216Z,100.00
2018-09-14T01:00:46.485Z,100.00
2018-09-14T01:01:56.497Z,100.00
2018-09-14T01:03:02.718Z,99.24
2018-09-14T01:04:08.973Z,99.56
2018-09-14T01:05:15.266Z,99.48
2018-09-14T01:06:20.943Z,100.00
2018-09-14T01:07:27.178Z,100.00
2018-09-14T01:08:33.438Z,100.00
2018-09-14T01:09:39.695Z,100.00
2018-09-14T01:10:45.623Z,100.00
2018-09-14T01:11:51.597Z,100.00
2018-09-14T01:12:57.816Z,100.00
2018-09-14T01:14:04.953Z,100.00
2018-09-14T01:15:11.282Z,100.00
2018-09-14T01:16:17.176Z,100.00
2018-09-14T01:17:23.236Z,100.00
2018-09-14T01:18:29.333Z,99.88
2018-09-14T01:19:35.627Z,99.22
2018-09-14T01:20:41.880Z,99.84
2018-09-14T01:21:48.122Z,100.00
2018-09-14T01:22:54.356Z,99.86
2018-09-14T01:24:00.639Z,99.67
2018-09-14T01:25:06.235Z,99.89
2018-09-14T01:26:12.507Z,99.97
2018-09-14T01:27:18.444Z,99.29
2018-09-14T01:28:24.407Z,99.01
2018-09-14T01:29:30.349Z,99.00
2018-09-14T01:30:36.344Z,98.76
2018-09-14T01:31:42.302Z,97.92
2018-09-14T01:32:48.061Z,98.38
2018-09-14T01:33:54.289Z,98.87
2018-09-14T01:35:00.270Z,99.19
2018-09-14T01:36:05.940Z,99.87
2018-09-14T01:37:12.228Z,100.00
2018-09-14T01:38:18.493Z,100.00
2018-09-14T01:39:24.781Z,99.73
2018-09-14T01:40:31.084Z,99.42
2018-09-14T01:41:37.322Z,99.49
2018-09-14T01:42:43.565Z,98.87
2018-09-14T01:43:49.818Z,98.68
2018-09-14T01:44:56.036Z,99.47
2018-09-14T01:46:02.355Z,100.00
2018-09-14T01:47:08.639Z,100.00
2018-09-14T01:48:14.879Z,100.00
2018-09-14T01:49:21.142Z,100.00
2018-09-14T01:50:27.200Z,100.00
2018-09-14T01:51:33.473Z,100.00
2018-09-14T01:52:39.432Z,100.00
2018-09-14T01:53:45.665Z,100.00
2018-09-14T01:54:51.643Z,100.00
2018-09-14T01:55:57.651Z,100.00
2018-09-14T01:57:03.596Z,100.00
2018-09-14T01:58:09.850Z,100.00
2018-09-14T01:59:16.095Z,100.00
2018-09-14T02:00:22.365Z,100.00
2018-09-14T02:01:28.639Z,100.00
2018-09-14T02:02:34.916Z,100.00
2018-09-14T02:03:41.182Z,100.00
2018-09-14T02:04:47.089Z,100.00
2018-09-14T02:05:53.060Z,100.00
2018-09-14T02:06:59.114Z,100.00
2018-09-14T02:08:05.352Z,100.00
2018-09-14T02:09:11.337Z,100.00
2018-09-14T02:10:16.861Z,100.00
2018-09-14T02:11:23.135Z,100.00
2018-09-14T02:12:29.373Z,100.00
2018-09-14T02:13:35.603Z,100.00
2018-09-14T02:14:41.905Z,100.00
2018-09-14T02:15:48.174Z,100.00
2018-09-14T02:16:54.430Z,100.00
2018-09-14T02:18:00.677Z,100.00
2018-09-14T02:19:06.934Z,100.00
2018-09-14T02:20:13.187Z,100.00
2018-09-14T02:21:19.424Z,100.00
2018-09-14T02:22:25.697Z,100.00
2018-09-14T02:23:31.946Z,100.00
2018-09-14T02:24:38.188Z,100.00
2018-09-14T02:25:44.453Z,100.00
2018-09-14T02:26:50.725Z,100.00
2018-09-14T02:27:56.616Z,100.00
2018-09-14T02:29:02.573Z,100.00
2018-09-14T02:30:07.933Z,100.00
2018-09-14T02:31:14.169Z,100.00
2018-09-14T02:32:20.444Z,100.00
2018-09-14T02:33:26.740Z,100.00
2018-09-14T02:34:32.985Z,100.00
2018-09-14T02:35:39.229Z,100.00
2018-09-14T02:36:45.477Z,100.00
2018-09-14T02:37:51.706Z,100.00
2018-09-14T02:38:57.962Z,100.00
2018-09-14T02:40:03.906Z,100.00
2018-09-14T02:41:10.160Z,100.00
2018-09-14T02:42:16.443Z,100.00
2018-09-14T02:43:22.695Z,100.00
2018-09-14T02:44:28.668Z,100.00
2018-09-14T02:45:34.909Z,100.00
2018-09-14T02:46:41.793Z,100.00
2018-09-14T02:47:47.679Z,100.00
2018-09-14T02:48:53.943Z,100.00
2018-09-14T02:49:59.863Z,100.00
2018-09-14T02:51:06.109Z,100.00
2018-09-14T02:52:12.371Z,100.00
2018-09-14T02:53:18.364Z,100.00
2018-09-14T02:54:24.418Z,100.00
2018-09-14T02:55:30.436Z,100.00
2018-09-14T02:56:36.647Z,100.00
2018-09-14T02:57:42.908Z,100.00
2018-09-14T02:58:49.123Z,100.00
2018-09-14T02:59:55.359Z,100.00
2018-09-14T03:01:01.604Z,100.00
2018-09-14T03:02:07.825Z,100.00
2018-09-14T03:03:13.728Z,100.00
2018-09-14T03:04:19.962Z,100.00
2018-09-14T03:05:26.209Z,100.00
2018-09-14T03:06:32.457Z,100.00
2018-09-14T03:07:38.752Z,100.00
2018-09-14T03:08:45.014Z,100.00
2018-09-14T03:09:51.244Z,100.00
2018-09-14T03:10:57.546Z,100.00
2018-09-14T03:12:03.817Z,100.00
2018-09-14T03:13:10.073Z,100.00
2018-09-14T03:14:16.328Z,100.00
2018-09-14T03:15:22.578Z,100.00
2018-09-14T03:16:28.823Z,100.00
2018-09-14T03:17:35.100Z,100.00
2018-09-14T03:18:41.347Z,100.00
2018-09-14T03:19:47.597Z,100.00
2018-09-14T03:20:53.872Z,100.00
2018-09-14T03:22:00.113Z,100.00
2018-09-14T03:23:06.045Z,100.00
2018-09-14T03:24:12.320Z,100.00
2018-09-14T03:25:18.581Z,100.00
2018-09-14T03:26:24.844Z,100.00
2018-09-14T03:27:31.116Z,100.00
2018-09-14T03:28:37.396Z,100.00
2018-09-14T03:29:43.641Z,100.00
2018-09-14T03:30:49.893Z,100.00
2018-09-14T03:31:56.137Z,100.00
2018-09-14T03:33:02.448Z,100.00
2018-09-14T03:34:08.693Z,100.00
2018-09-14T03:35:14.967Z,100.00
2018-09-14T03:36:21.231Z,100.00
2018-09-14T03:37:27.494Z,100.00
2018-09-14T03:38:33.768Z,99.77
2018-09-14T03:39:40.041Z,99.30
2018-09-14T03:40:46.309Z,98.85
2018-09-14T03:41:52.534Z,98.29
2018-09-14T03:42:58.806Z,97.93
2018-09-14T03:44:04.740Z,97.84
2018-09-14T03:45:10.978Z,98.48
2018-09-14T03:46:17.239Z,97.63
2018-09-14T03:47:23.482Z,97.82
2018-09-14T03:48:29.781Z,97.94
2018-09-14T03:49:35.999Z,98.10
2018-09-14T03:50:42.254Z,98.06
2018-09-14T03:51:48.503Z,97.86
2018-09-14T03:52:54.731Z,98.07
2018-09-14T03:54:01.004Z,98.50
2018-09-14T03:55:06.910Z,98.65
2018-09-14T03:56:13.144Z,98.95
2018-09-14T03:57:19.377Z,99.23
2018-09-14T03:58:25.843Z,99.71
2018-09-14T03:59:32.060Z,99.86
2018-09-14T04:00:38.319Z,99.87
2018-09-14T04:01:44.557Z,99.46
2018-09-14T04:02:50.782Z,99.61
2018-09-14T04:03:57.024Z,99.55
2018-09-14T04:05:03.239Z,99.70
2018-09-14T04:06:09.482Z,99.72
2018-09-14T04:07:15.712Z,99.72
2018-09-14T04:08:21.932Z,99.74
2018-09-14T04:09:28.172Z,99.35
2018-09-14T04:10:34.225Z,99.50
2018-09-14T04:11:40.454Z,99.20
2018-09-14T04:12:46.715Z,99.37
2018-09-14T04:13:52.975Z,99.49
2018-09-14T04:14:58.930Z,99.26
2018-09-14T04:16:05.134Z,99.38
2018-09-14T04:17:11.000Z,99.24
2018-09-14T04:18:17.191Z,99.15
2018-09-14T04:19:23.428Z,99.10
2018-09-14T04:20:29.650Z,99.08
2018-09-14T04:21:35.912Z,99.22
2018-09-14T04:22:41.939Z,99.07
2018-09-14T04:23:48.211Z,98.90
2018-09-14T04:24:54.692Z,98.91
2018-09-14T04:26:01.058Z,99.08
2018-09-14T04:27:08.629Z,98.17
2018-09-14T04:28:15.955Z,97.73
2018-09-14T04:29:22.535Z,97.69
2018-09-14T04:30:28.795Z,97.77
2018-09-14T04:31:35.053Z,97.83
2018-09-14T04:32:41.326Z,97.83
2018-09-14T04:33:47.574Z,97.88
2018-09-14T04:34:53.797Z,97.58
2018-09-14T04:36:00.037Z,98.21
2018-09-14T04:37:06.292Z,98.80
2018-09-14T04:38:12.564Z,99.16
2018-09-14T04:39:19.029Z,99.49
2018-09-14T04:40:25.263Z,99.56
2018-09-14T04:41:31.504Z,99.74
2018-09-14T04:42:37.731Z,100.00
2018-09-14T04:43:43.768Z,99.85
2018-09-14T04:44:50.021Z,99.88
2018-09-14T04:45:56.249Z,99.38
2018-09-14T04:47:02.462Z,99.56
2018-09-14T04:48:08.697Z,99.89
2018-09-14T04:49:14.975Z,99.83
2018-09-14T04:50:21.208Z,99.55
2018-09-14T04:51:27.540Z,99.43
2018-09-14T04:52:33.926Z,99.34
2018-09-14T04:53:40.217Z,99.60
2018-09-14T04:54:46.493Z,100.00
2018-09-14T04:55:52.711Z,100.00
2018-09-14T04:56:58.965Z,100.00
2018-09-14T04:58:04.628Z,99.66
2018-09-14T04:59:10.875Z,99.34
2018-09-14T05:00:16.796Z,99.19
2018-09-14T05:01:23.040Z,99.49
2018-09-14T05:02:29.283Z,99.49
2018-09-14T05:03:35.571Z,99.17
2018-09-14T05:04:41.857Z,99.64
2018-09-14T05:05:48.101Z,99.90
2018-09-14T05:06:54.369Z,99.88
2018-09-14T05:08:00.579Z,99.64
2018-09-14T05:09:06.099Z,99.46
2018-09-14T05:10:12.376Z,99.63
2018-09-14T05:11:18.636Z,99.46
2018-09-14T05:12:25.534Z,99.63
2018-09-14T05:13:31.747Z,99.47
2018-09-14T05:14:38.028Z,99.56
2018-09-14T05:15:44.263Z,99.91
2018-09-14T05:16:50.513Z,100.00
2018-09-14T05:17:56.515Z,99.96
2018-09-14T05:19:02.508Z,99.81
2018-09-14T05:20:08.790Z,99.07
2018-09-14T05:21:14.812Z,99.23
2018-09-14T05:22:21.047Z,99.80
2018-09-14T05:23:27.267Z,99.85
2018-09-14T05:24:33.743Z,100.00
2018-09-14T05:25:40.286Z,100.00
2018-09-14T05:26:46.255Z,100.00
2018-09-14T05:27:52.638Z,100.00
2018-09-14T05:28:58.847Z,100.00
2018-09-14T05:30:04.437Z,100.00
2018-09-14T05:31:10.675Z,100.00
2018-09-14T05:32:16.902Z,100.00
2018-09-14T05:33:23.160Z,99.79
2018-09-14T05:34:29.407Z,99.83
2018-09-14T05:35:37.329Z,100.00
2018-09-14T05:36:44.160Z,100.00
2018-09-14T05:37:50.424Z,100.00
2018-09-14T05:38:56.667Z,100.00
2018-09-14T05:40:02.963Z,100.00
2018-09-14T05:41:09.998Z,100.00
2018-09-14T05:42:18.361Z,100.00
2018-09-14T05:43:26.830Z,100.00
2018-09-14T05:44:35.046Z,100.00
2018-09-14T05:45:42.746Z,100.00
2018-09-14T05:46:50.777Z,100.00
2018-09-14T05:47:59.524Z,100.00
2018-09-14T05:49:07.216Z,100.00
2018-09-14T05:50:15.335Z,100.00
2018-09-14T05:51:22.169Z,100.00
2018-09-14T05:52:28.941Z,100.00
2018-09-14T05:53:35.201Z,100.00
2018-09-14T05:54:41.477Z,100.00
2018-09-14T05:55:47.710Z,99.96
2018-09-14T05:56:53.964Z,99.47
2018-09-14T05:58:00.193Z,99.38
2018-09-14T05:59:06.089Z,99.64
2018-09-14T06:00:12.609Z,99.63
2018-09-14T06:01:18.564Z,99.39
2018-09-14T06:02:24.784Z,99.35
2018-09-14T06:03:31.011Z,98.81
2018-09-14T06:04:37.261Z,98.99
2018-09-14T06:05:43.508Z,99.47
2018-09-14T06:06:50.021Z,99.54
2018-09-14T06:07:56.493Z,99.53
2018-09-14T06:09:02.717Z,99.38
2018-09-14T06:10:08.731Z,99.40
2018-09-14T06:11:15.173Z,99.69
2018-09-14T06:12:21.507Z,100.00
2018-09-14T06:13:27.779Z,100.00
2018-09-14T06:14:34.043Z,100.00
2018-09-14T06:15:40.012Z,100.00
2018-09-14T06:16:47.310Z,99.79
2018-09-14T06:17:53.668Z,100.00
2018-09-14T06:19:00.137Z,100.00
2018-09-14T06:20:06.051Z,100.00
2018-09-14T06:21:12.289Z,99.92
2018-09-14T06:22:18.550Z,99.79
2018-09-14T06:23:24.803Z,100.00
2018-09-14T06:24:31.049Z,99.42
2018-09-14T06:25:37.325Z,99.07
2018-09-14T06:26:43.556Z,99.65
2018-09-14T06:27:49.795Z,100.00
2018-09-14T06:28:56.064Z,100.00
2018-09-14T06:30:02.307Z,100.00
2018-09-14T06:31:08.611Z,100.00
2018-09-14T06:32:14.869Z,100.00
2018-09-14T06:33:21.132Z,100.00
2018-09-14T06:34:27.395Z,100.00
2018-09-14T06:35:33.658Z,100.00
2018-09-14T06:36:39.937Z,100.00
2018-09-14T06:37:46.170Z,100.00
2018-09-14T06:38:52.411Z,100.00
2018-09-14T06:39:58.721Z,100.00
2018-09-14T06:41:04.670Z,100.00
2018-09-14T06:42:10.998Z,100.00
2018-09-14T06:43:17.236Z,100.00
2018-09-14T06:44:23.733Z,100.00
2018-09-14T06:45:30.067Z,100.00
2018-09-14T06:46:36.466Z,100.00
2018-09-14T06:47:42.723Z,100.00
2018-09-14T06:48:49.013Z,100.00
2018-09-14T06:49:55.249Z,100.00
2018-09-14T06:51:01.529Z,100.00
2018-09-14T06:52:07.182Z,100.00
2018-09-14T06:53:13.574Z,100.00
2018-09-14T06:54:19.587Z,100.00
2018-09-14T06:55:25.856Z,100.00
2018-09-14T06:56:31.732Z,100.00
2018-09-14T06:57:37.949Z,100.00
2018-09-14T06:58:44.177Z,100.00
2018-09-14T06:59:50.416Z,100.00
2018-09-14T07:00:56.674Z,100.00
2018-09-14T07:02:02.901Z,100.00
2018-09-14T07:03:09.145Z,100.00
2018-09-14T07:04:15.409Z,100.00
2018-09-14T07:05:21.633Z,100.00
2018-09-14T07:06:27.939Z,100.00
2018-09-14T07:07:34.371Z,100.00
2018-09-14T07:08:40.607Z,100.00
2018-09-14T07:09:46.852Z,99.85
2018-09-14T07:10:53.111Z,99.78
2018-09-14T07:11:59.369Z,99.72
2018-09-14T07:13:05.345Z,99.70
2018-09-14T07:14:11.613Z,99.64
2018-09-14T07:15:17.882Z,99.30
2018-09-14T07:16:24.118Z,99.69
2018-09-14T07:17:30.353Z,99.50
2018-09-14T07:18:36.634Z,99.46
2018-09-14T07:19:42.531Z,99.24
2018-09-14T07:20:48.780Z,98.90
2018-09-14T07:21:54.741Z,99.42
2018-09-14T07:23:01.148Z,98.92
2018-09-14T07:24:07.397Z,99.11
2018-09-14T07:25:13.634Z,98.81
2018-09-14T07:26:19.888Z,98.56
2018-09-14T07:27:26.126Z,98.49
2018-09-14T07:28:32.559Z,97.83
2018-09-14T07:29:38.756Z,97.54
2018-09-14T07:30:45.047Z,97.02
2018-09-14T07:31:51.492Z,96.54
2018-09-14T07:32:57.802Z,96.09
2018-09-14T07:34:04.037Z,96.11
2018-09-14T07:35:10.238Z,95.65
2018-09-14T07:36:16.504Z,95.56
2018-09-14T07:37:22.751Z,95.37
2018-09-14T07:38:28.970Z,95.44
2018-09-14T07:39:35.205Z,95.47
2018-09-14T07:40:41.095Z,95.57
2018-09-14T07:41:47.324Z,96.22
2018-09-14T07:42:53.828Z,96.31
2018-09-14T07:44:00.049Z,96.00
2018-09-14T07:45:05.561Z,95.71
2018-09-14T07:46:11.813Z,95.50
2018-09-14T07:47:18.073Z,95.89
2018-09-14T07:48:24.330Z,95.86
2018-09-14T07:49:30.758Z,94.40
2018-09-14T07:50:36.968Z,93.80
2018-09-14T07:51:43.234Z,93.72
2018-09-14T07:52:49.116Z,93.83
2018-09-14T07:53:55.333Z,94.04
2018-09-14T07:55:01.550Z,94.35
2018-09-14T07:56:07.455Z,94.49
2018-09-14T07:57:13.713Z,94.13
2018-09-14T07:58:19.921Z,94.02
2018-09-14T07:59:26.133Z,93.52
2018-09-14T08:00:32.338Z,93.91
2018-09-14T08:01:38.593Z,94.06
2018-09-14T08:02:44.552Z,93.22
2018-09-14T08:03:50.766Z,93.20
2018-09-14T08:04:57.859Z,93.09
2018-09-14T08:06:04.103Z,93.09
2018-09-14T08:07:10.369Z,93.53
2018-09-14T08:08:16.596Z,93.41
2018-09-14T08:09:22.807Z,93.09
2018-09-14T08:10:29.060Z,93.66
2018-09-14T08:11:35.315Z,93.33
2018-09-14T08:12:41.573Z,93.17
2018-09-14T08:13:47.823Z,92.14
2018-09-14T08:14:54.043Z,90.89
2018-09-14T08:16:00.268Z,92.24
2018-09-14T08:17:06.543Z,91.86
2018-09-14T08:18:12.492Z,91.67
2018-09-14T08:19:18.788Z,92.61
2018-09-14T08:20:24.781Z,93.24
2018-09-14T08:21:31.060Z,92.87
2018-09-14T08:22:37.526Z,92.09
2018-09-14T08:23:43.745Z,92.21
2018-09-14T08:24:50.000Z,91.21
2018-09-14T08:25:55.870Z,91.76
2018-09-14T08:27:02.100Z,91.19
2018-09-14T08:28:08.557Z,90.20
2018-09-14T08:29:14.850Z,90.60
2018-09-14T08:30:21.135Z,89.50
2018-09-14T08:31:27.365Z,90.25
2018-09-14T08:32:33.805Z,90.31
2018-09-14T08:33:40.073Z,90.90
2018-09-14T08:34:46.985Z,90.26
2018-09-14T08:35:56.100Z,90.26
2018-09-14T08:37:05.050Z,90.02
2018-09-14T08:38:12.203Z,90.88
2018-09-14T08:39:21.567Z,90.74
2018-09-14T08:40:27.856Z,90.93
2018-09-14T08:41:34.069Z,90.34
2018-09-14T08:42:40.674Z,90.08
2018-09-14T08:43:46.889Z,90.13
2018-09-14T08:44:53.120Z,89.81
2018-09-14T08:45:59.340Z,88.77
2018-09-14T08:47:05.281Z,88.60
2018-09-14T08:48:11.204Z,89.42
2018-09-14T08:49:17.409Z,89.39
2018-09-14T08:50:23.683Z,89.28
2018-09-14T08:51:29.719Z,88.48
2018-09-14T08:52:35.961Z,88.47
2018-09-14T08:53:41.971Z,88.19
2018-09-14T08:54:48.308Z,87.82
2018-09-14T08:55:54.566Z,88.05
2018-09-14T08:57:00.864Z,88.88
2018-09-14T08:58:07.146Z,87.59
2018-09-14T08:59:13.690Z,87.55
2018-09-14T09:00:19.709Z,87.91
2018-09-14T09:01:25.505Z,87.26
2018-09-14T09:02:31.948Z,87.43
2018-09-14T09:03:38.173Z,87.13
2018-09-14T09:04:44.437Z,86.91
2018-09-14T09:05:50.891Z,86.91
2018-09-14T09:06:57.152Z,87.62
2018-09-14T09:08:03.393Z,86.92
2018-09-14T09:09:09.663Z,87.19
2018-09-14T09:10:16.115Z,85.43
2018-09-14T09:11:22.471Z,84.16
2018-09-14T09:12:28.692Z,83.52
2018-09-14T09:13:35.014Z,82.27
2018-09-14T09:14:41.995Z,82.61
2018-09-14T09:15:49.005Z,82.90
2018-09-14T09:16:55.268Z,81.94
2018-09-14T09:18:01.576Z,80.60
2018-09-14T09:19:07.861Z,80.05
2018-09-14T09:20:14.259Z,80.62
2018-09-14T09:21:20.216Z,80.15
2018-09-14T09:22:26.447Z,79.87
2018-09-14T09:23:32.750Z,79.56
2018-09-14T09:24:39.171Z,80.20
2018-09-14T09:25:46.016Z,80.75
2018-09-14T09:26:52.780Z,80.26
2018-09-14T09:27:59.583Z,79.74
2018-09-14T09:29:05.817Z,80.29
2018-09-14T09:30:12.118Z,81.05
2018-09-14T09:31:18.441Z,80.32
2018-09-14T09:32:24.729Z,79.69
2018-09-14T09:33:30.984Z,79.13
2018-09-14T09:34:37.206Z,78.38
2018-09-14T09:35:43.515Z,78.41
2018-09-14T09:36:49.777Z,78.69
2018-09-14T09:37:56.035Z,78.54
2018-09-14T09:39:02.264Z,79.65
2018-09-14T09:40:08.516Z,80.63
2018-09-14T09:41:14.801Z,82.10
2018-09-14T09:42:21.012Z,82.18
2018-09-14T09:43:27.422Z,80.54
2018-09-14T09:44:33.868Z,80.35
2018-09-14T09:45:40.156Z,80.00
2018-09-14T09:46:46.031Z,80.17
2018-09-14T09:47:51.989Z,79.81
2018-09-14T09:48:58.140Z,80.75
2018-09-14T09:50:04.016Z,82.09
2018-09-14T09:51:10.406Z,81.29
2018-09-14T09:52:17.093Z,81.42
2018-09-14T09:53:23.382Z,81.34
2018-09-14T09:54:29.772Z,80.98
2018-09-14T09:55:36.013Z,79.58
2018-09-14T09:56:41.599Z,77.65
2018-09-14T09:57:47.757Z,77.00
2018-09-14T09:58:55.356Z,78.00
2018-09-14T10:00:01.707Z,78.06
2018-09-14T10:01:08.443Z,79.96
2018-09-14T10:02:14.372Z,80.81
2018-09-14T10:03:20.079Z,81.61
2018-09-14T10:04:25.788Z,81.72
2018-09-14T10:05:31.773Z,81.97
2018-09-14T10:06:37.758Z,80.75
2018-09-14T10:07:44.005Z,80.02
2018-09-14T10:08:50.195Z,80.79
2018-09-14T10:09:56.552Z,80.49
2018-09-14T10:11:02.905Z,79.37
2018-09-14T10:12:09.140Z,78.30
2018-09-14T10:13:15.389Z,77.46
2018-09-14T10:14:21.703Z,78.43
2018-09-14T10:15:27.916Z,78.34
2018-09-14T10:16:35.003Z,77.81
2018-09-14T10:17:41.783Z,78.29
2018-09-14T10:18:48.049Z,77.75
2018-09-14T10:19:54.252Z,76.21
2018-09-14T10:21:01.175Z,78.28
2018-09-14T10:22:07.609Z,78.37
2018-09-14T10:23:13.911Z,76.50
2018-09-14T10:24:20.172Z,75.75
2018-09-14T10:25:26.577Z,76.01
2018-09-14T10:26:33.232Z,77.10
2018-09-14T10:27:39.669Z,76.94
2018-09-14T10:28:46.157Z,75.40
2018-09-14T10:29:53.053Z,74.38
2018-09-14T10:30:59.325Z,74.18
2018-09-14T10:32:05.585Z,74.15
2018-09-14T10:33:12.653Z,75.02
2018-09-14T10:34:19.072Z,77.06
2018-09-14T10:35:25.328Z,77.20
2018-09-14T10:36:31.605Z,76.59
2018-09-14T10:37:37.840Z,75.20
2018-09-14T10:38:44.048Z,74.09
2018-09-14T10:39:50.969Z,74.06
2018-09-14T10:40:57.715Z,76.51
2018-09-14T10:42:03.986Z,75.31
2018-09-14T10:43:09.938Z,74.26
2018-09-14T10:44:16.269Z,73.63
2018-09-14T10:45:22.691Z,74.32
2018-09-14T10:46:28.783Z,75.61
2018-09-14T10:47:35.039Z,76.19
2018-09-14T10:48:41.272Z,75.08
2018-09-14T10:49:47.472Z,75.38
2018-09-14T10:50:53.731Z,75.13
2018-09-14T10:51:59.998Z,74.53
2018-09-14T10:53:06.276Z,74.13
2018-09-14T10:54:12.591Z,74.17
2018-09-14T10:55:18.996Z,74.25
2018-09-14T10:56:24.941Z,77.01
2018-09-14T10:57:31.375Z,77.68
2018-09-14T10:58:37.516Z,77.87
2018-09-14T10:59:43.972Z,78.04
2018-09-14T11:00:50.369Z,76.88
2018-09-14T11:01:56.952Z,75.83
2018-09-14T11:03:03.336Z,75.77
2018-09-14T11:04:09.669Z,74.34
2018-09-14T11:05:15.561Z,74.28
2018-09-14T11:06:21.809Z,73.38
2018-09-14T11:07:28.063Z,72.92
2018-09-14T11:08:34.312Z,72.46
2018-09-14T11:09:40.564Z,73.04
2018-09-14T11:10:46.547Z,73.12
2018-09-14T11:11:52.781Z,73.87
2018-09-14T11:12:59.065Z,74.46
2018-09-14T11:14:05.328Z,75.12
2018-09-14T11:15:11.393Z,74.37
2018-09-14T11:16:19.003Z,73.56
2018-09-14T11:17:25.678Z,74.43
2018-09-14T11:18:33.688Z,73.77
2018-09-14T11:19:40.529Z,72.91
2018-09-14T11:20:47.771Z,72.63
2018-09-14T11:21:55.658Z,72.82
2018-09-14T11:23:03.600Z,71.09
2018-09-14T11:24:10.463Z,72.77
2018-09-14T11:25:16.591Z,74.37
2018-09-14T11:26:23.397Z,74.35
2018-09-14T11:27:31.498Z,73.06
2018-09-14T11:28:38.386Z,73.15
2018-09-14T11:29:44.799Z,75.28
2018-09-14T11:30:51.378Z,75.80
2018-09-14T11:31:57.633Z,74.43
2018-09-14T11:33:03.696Z,75.23
2018-09-14T11:34:10.356Z,74.42
2018-09-14T11:35:17.058Z,74.28
2018-09-14T11:36:23.576Z,73.96
2018-09-14T11:37:29.890Z,72.49
2018-09-14T11:38:36.951Z,72.44
2018-09-14T11:39:44.128Z,73.11
2018-09-14T11:40:51.084Z,73.35
2018-09-14T11:41:57.873Z,72.12
2018-09-14T11:43:04.824Z,71.67
2018-09-14T11:44:11.895Z,71.63
2018-09-14T11:45:18.781Z,72.68
2018-09-14T11:46:26.194Z,73.79
2018-09-14T11:47:32.812Z,74.34
2018-09-14T11:48:39.020Z,73.76
2018-09-14T11:49:45.727Z,72.75
2018-09-14T11:50:52.127Z,71.71
2018-09-14T11:52:00.899Z,70.55
2018-09-14T11:53:07.880Z,70.82
2018-09-14T11:54:14.871Z,70.40
2018-09-14T11:55:21.632Z,69.84
2018-09-14T11:56:28.117Z,70.98
2018-09-14T11:57:34.360Z,70.45
2018-09-14T11:58:41.223Z,70.50
2018-09-14T11:59:49.303Z,70.64
2018-09-14T12:00:56.111Z,70.83
2018-09-14T12:02:03.191Z,71.71
2018-09-14T12:03:09.899Z,71.39
2018-09-14T12:04:16.673Z,69.41
2018-09-14T12:05:23.739Z,70.40
2018-09-14T12:06:30.457Z,70.21
2018-09-14T12:07:36.917Z,70.52
2018-09-14T12:08:43.999Z,70.99
2018-09-14T12:09:50.539Z,70.90
2018-09-14T12:10:57.210Z,70.92
2018-09-14T12:12:04.355Z,70.16
2018-09-14T12:13:11.520Z,70.97
2018-09-14T12:14:17.938Z,69.80
2018-09-14T12:15:24.707Z,69.81
2018-09-14T12:16:31.327Z,69.04
2018-09-14T12:17:38.013Z,68.45
2018-09-14T12:18:44.269Z,68.54
2018-09-14T12:19:50.956Z,68.48
2018-09-14T12:20:58.991Z,68.96
2018-09-14T12:22:05.562Z,70.03
2018-09-14T12:23:11.932Z,69.44
2018-09-14T12:24:19.007Z,69.27
2018-09-14T12:25:26.372Z,68.96
2018-09-14T12:26:32.877Z,70.35
2018-09-14T12:27:39.447Z,70.78
2018-09-14T12:28:46.233Z,70.84
2018-09-14T12:29:52.865Z,70.58
2018-09-14T12:30:59.356Z,70.80
2018-09-14T12:32:06.424Z,71.06
2018-09-14T12:33:13.299Z,70.97
2018-09-14T12:34:20.116Z,69.34
2018-09-14T12:35:26.934Z,70.62
2018-09-14T12:36:33.897Z,68.83
2018-09-14T12:37:41.140Z,68.07
2018-09-14T12:38:47.516Z,68.80
2018-09-14T12:39:53.729Z,69.39
2018-09-14T12:40:59.949Z,69.28
2018-09-14T12:42:06.360Z,70.53
2018-09-14T12:43:12.633Z,71.04
2018-09-14T12:44:18.900Z,69.88
2018-09-14T12:45:26.770Z,71.11
2018-09-14T12:46:33.999Z,70.41
2018-09-14T12:47:40.339Z,71.48
2018-09-14T12:48:47.094Z,71.97
2018-09-14T12:49:54.390Z,72.09
2018-09-14T12:51:01.710Z,72.11
2018-09-14T12:52:08.640Z,71.21
2018-09-14T12:53:15.414Z,71.34
2018-09-14T12:54:23.067Z,70.83
2018-09-14T12:55:29.638Z,70.90
2018-09-14T12:56:36.271Z,71.34
2018-09-14T12:57:43.406Z,70.56
2018-09-14T12:58:51.677Z,70.49
2018-09-14T12:59:58.890Z,70.52
2018-09-14T13:01:05.279Z,68.76
2018-09-14T13:02:11.856Z,68.23
2018-09-14T13:03:18.619Z,68.65
2018-09-14T13:04:25.208Z,69.44
2018-09-14T13:05:31.912Z,69.80
2018-09-14T13:06:38.342Z,70.04
2018-09-14T13:07:45.085Z,69.77
2018-09-14T13:08:51.040Z,70.50
2018-09-14T13:09:57.392Z,69.42
2018-09-14T13:11:03.800Z,69.40
2018-09-14T13:12:10.419Z,69.63
2018-09-14T13:13:16.990Z,67.66
2018-09-14T13:14:23.601Z,66.96
2018-09-14T13:15:30.096Z,66.84
2018-09-14T13:16:36.677Z,67.94
2018-09-14T13:17:43.811Z,69.21
2018-09-14T13:18:50.663Z,69.23
2018-09-14T13:19:56.895Z,69.41
2018-09-14T13:21:04.189Z,67.43
2018-09-14T13:22:12.214Z,66.72
2018-09-14T13:23:18.468Z,66.10
2018-09-14T13:24:25.158Z,65.16
2018-09-14T13:25:30.907Z,64.24
2018-09-14T13:26:37.846Z,65.07
2018-09-14T13:27:44.393Z,67.01
2018-09-14T13:28:51.286Z,68.72
2018-09-14T13:29:58.136Z,68.24
2018-09-14T13:31:04.033Z,68.79
2018-09-14T13:32:10.017Z,68.66
2018-09-14T13:33:17.279Z,68.08
2018-09-14T13:34:24.165Z,68.78
2018-09-14T13:35:30.580Z,68.91
2018-09-14T13:36:37.393Z,68.72
2018-09-14T13:37:44.112Z,67.97
2018-09-14T13:38:50.625Z,67.20
2018-09-14T13:39:57.216Z,67.17
2018-09-14T13:41:03.763Z,67.63
2018-09-14T13:42:09.773Z,67.14
2018-09-14T13:43:15.992Z,66.09
2018-09-14T13:44:22.218Z,66.27
2018-09-14T13:45:28.552Z,65.71
2018-09-14T13:46:34.802Z,65.17
2018-09-14T13:47:41.252Z,64.47
2018-09-14T13:48:47.505Z,66.09
2018-09-14T13:49:53.737Z,65.30
2018-09-14T13:50:59.971Z,66.79
2018-09-14T13:52:06.240Z,67.71
2018-09-14T13:53:12.500Z,66.74
2018-09-14T13:54:18.729Z,65.88
2018-09-14T13:55:24.994Z,65.44
2018-09-14T13:56:31.233Z,64.58
2018-09-14T13:57:37.456Z,64.97
2018-09-14T13:58:43.651Z,64.76
2018-09-14T13:59:49.837Z,67.54
2018-09-14T14:00:56.089Z,67.64
2018-09-14T14:02:02.316Z,67.32
2018-09-14T14:03:08.618Z,68.00
2018-09-14T14:04:14.922Z,67.83
2018-09-14T14:05:21.510Z,66.10